createdAt,value
2018-02-18T00:01:56.500Z,-0.80
2018-02-18T00:04:00.033Z,-0.80
2018-02-18T00:06:03.533Z,-0.80
2018-02-18T00:08:07.070Z,-0.80
2018-02-18T00:10:11.415Z,-0.80
2018-02-18T00:12:14.995Z,-0.80
2018-02-18T00:16:55.547Z,-0.90
2018-02-18T00:18:58.993Z,-1.20
2018-02-18T00:21:02.508Z,-1.00
2018-02-18T00:23:06.053Z,-1.00
2018-02-18T00:25:09.562Z,-0.90
2018-02-18T00:27:13.127Z,-1.10
2018-02-18T00:29:17.471Z,-0.90
2018-02-18T00:31:20.992Z,-0.90
2018-02-18T00:33:24.567Z,-0.90
2018-02-18T00:35:28.063Z,-0.90
2018-02-18T00:37:31.570Z,-0.90
2018-02-18T00:39:35.140Z,-1.00
2018-02-18T00:41:38.706Z,-1.30
2018-02-18T00:43:42.303Z,-1.00
2018-02-18T00:45:45.833Z,-0.90
2018-02-18T00:47:49.425Z,-1.10
2018-02-18T00:49:53.012Z,-1.00
2018-02-18T00:51:56.526Z,-1.20
2018-02-18T00:54:00.117Z,-1.10
2018-02-18T00:56:03.738Z,-1.30
2018-02-18T00:58:07.246Z,-1.10
2018-02-18T01:00:10.793Z,-1.20
2018-02-18T01:02:14.431Z,-1.10
2018-02-18T01:04:17.949Z,-1.00
2018-02-18T01:06:21.461Z,-1.10
2018-02-18T01:08:25.809Z,-1.20
2018-02-18T01:10:29.338Z,-1.30
2018-02-18T01:12:32.930Z,-1.30
2018-02-18T01:14:37.278Z,-0.80
2018-02-18T01:16:41.052Z,-0.90
2018-02-18T01:18:44.602Z,-1.20
2018-02-18T01:20:48.163Z,-1.10
2018-02-18T01:22:52.479Z,-1.20
2018-02-18T01:24:56.065Z,-1.20
2018-02-18T01:26:59.562Z,-1.20
2018-02-18T01:29:03.165Z,-1.30
2018-02-18T01:31:06.665Z,-1.30
2018-02-18T01:33:10.176Z,-1.30
2018-02-18T01:35:13.762Z,-1.40
2018-02-18T01:37:18.110Z,-1.50
2018-02-18T01:39:21.614Z,-1.50
2018-02-18T01:41:25.108Z,-1.50
2018-02-18T01:43:47.683Z,-1.40
2018-02-18T01:45:51.220Z,-1.50
2018-02-18T01:47:54.794Z,-1.40
2018-02-18T01:49:58.382Z,-1.50
2018-02-18T01:52:01.994Z,-1.50
2018-02-18T01:54:06.317Z,-1.50
2018-02-18T01:56:09.914Z,-1.60
2018-02-18T01:58:13.441Z,-1.50
2018-02-18T02:00:16.999Z,-1.40
2018-02-18T02:02:20.624Z,-1.50
2018-02-18T02:04:24.222Z,-1.50
2018-02-18T02:06:27.828Z,-1.60
2018-02-18T02:08:31.437Z,-1.60
2018-02-18T02:10:35.745Z,-1.40
2018-02-18T02:12:39.239Z,-1.50
2018-02-18T02:14:42.793Z,-1.70
2018-02-18T02:16:47.161Z,-1.60
2018-02-18T02:18:50.710Z,-1.60
2018-02-18T02:20:54.286Z,-1.80
2018-02-18T02:22:58.568Z,-1.70
2018-02-18T02:25:02.128Z,-1.70
2018-02-18T02:27:05.712Z,-1.70
2018-02-18T02:29:09.305Z,-1.80
2018-02-18T02:31:12.819Z,-1.80
2018-02-18T02:33:16.310Z,-1.80
2018-02-18T02:35:19.866Z,-1.80
2018-02-18T02:37:24.199Z,-1.80
2018-02-18T02:39:27.749Z,-1.80
2018-02-18T02:41:31.296Z,-1.80
2018-02-18T02:43:34.791Z,-1.80
2018-02-18T02:45:45.392Z,-1.80
2018-02-18T02:47:51.268Z,-1.80
2018-02-18T02:49:54.779Z,-1.80
2018-02-18T02:51:59.084Z,-1.90
2018-02-18T02:54:03.443Z,-2.00
2018-02-18T02:56:07.017Z,-2.00
2018-02-18T02:58:10.602Z,-1.80
2018-02-18T03:00:15.043Z,-2.00
2018-02-18T03:02:18.644Z,-2.10
2018-02-18T03:04:22.188Z,-1.90
2018-02-18T03:06:25.710Z,-1.90
2018-02-18T03:08:29.229Z,-2.00
2018-02-18T03:10:32.717Z,-2.00
2018-02-18T03:12:36.273Z,-2.00
2018-02-18T03:14:39.797Z,-2.00
2018-02-18T03:16:43.362Z,-1.90
2018-02-18T03:18:47.672Z,-1.90
2018-02-18T03:20:51.995Z,-2.00
2018-02-18T03:22:56.305Z,-2.70
2018-02-18T03:25:00.616Z,-2.20
2018-02-18T03:27:04.225Z,-2.20
2018-02-18T03:29:07.760Z,-2.00
2018-02-18T03:31:11.348Z,-1.90
2018-02-18T03:33:14.952Z,-2.00
2018-02-18T03:35:18.506Z,-2.10
2018-02-18T03:37:22.163Z,-1.90
2018-02-18T03:39:25.769Z,-1.90
2018-02-18T03:41:29.369Z,-2.00
2018-02-18T03:43:32.940Z,-2.00
2018-02-18T03:45:36.487Z,-2.00
2018-02-18T03:47:40.020Z,-2.00
2018-02-18T03:49:43.540Z,-2.00
2018-02-18T03:51:47.124Z,-2.10
2018-02-18T03:53:50.693Z,-2.40
2018-02-18T03:55:55.011Z,-2.30
2018-02-18T03:57:58.537Z,-2.30
2018-02-18T04:00:02.080Z,-2.20
2018-02-18T04:02:05.663Z,-2.10
2018-02-18T04:04:09.251Z,-2.10
2018-02-18T04:06:12.783Z,-2.00
2018-02-18T04:08:16.544Z,-2.10
2018-02-18T04:10:20.914Z,-2.20
2018-02-18T04:12:24.474Z,-2.20
2018-02-18T04:14:28.102Z,-2.10
2018-02-18T04:16:31.676Z,-2.30
2018-02-18T04:18:36.001Z,-2.20
2018-02-18T04:20:40.509Z,-2.10
2018-02-18T04:22:44.096Z,-2.20
2018-02-18T04:24:47.621Z,-2.10
2018-02-18T04:26:51.196Z,-2.00
2018-02-18T04:28:55.531Z,-2.20
2018-02-18T04:30:59.071Z,-2.20
2018-02-18T04:33:02.652Z,-2.20
2018-02-18T04:35:06.209Z,-2.20
2018-02-18T04:37:10.719Z,-2.20
2018-02-18T04:39:14.365Z,-2.30
2018-02-18T04:41:18.080Z,-2.10
2018-02-18T04:43:21.645Z,-2.10
2018-02-18T04:45:25.215Z,-2.20
2018-02-18T04:47:29.526Z,-2.40
2018-02-18T04:49:33.822Z,-2.60
2018-02-18T04:51:37.380Z,-2.60
2018-02-18T04:53:40.854Z,-2.40
2018-02-18T04:55:44.472Z,-2.30
2018-02-18T04:57:48.005Z,-2.50
2018-02-18T04:59:51.534Z,-2.50
2018-02-18T05:01:55.085Z,-2.60
2018-02-18T05:03:58.603Z,-2.40
2018-02-18T05:06:02.912Z,-2.50
2018-02-18T05:08:06.513Z,-2.50
2018-02-18T05:10:10.118Z,-2.50
2018-02-18T05:12:13.718Z,-2.40
2018-02-18T05:14:17.228Z,-2.40
2018-02-18T05:16:20.739Z,-2.40
2018-02-18T05:18:24.351Z,-2.50
2018-02-18T05:20:27.962Z,-2.60
2018-02-18T05:22:31.466Z,-2.60
2018-02-18T05:24:35.780Z,-2.40
2018-02-18T05:26:39.351Z,-2.50
2018-02-18T05:28:42.870Z,-2.40
2018-02-18T05:30:46.407Z,-2.20
2018-02-18T05:32:50.003Z,-2.40
2018-02-18T05:34:53.568Z,-2.50
2018-02-18T05:36:57.099Z,-2.50
2018-02-18T05:39:00.657Z,-2.50
2018-02-18T05:41:04.216Z,-2.50
2018-02-18T05:43:07.818Z,-2.40
2018-02-18T05:45:11.375Z,-2.40
2018-02-18T05:47:14.902Z,-2.50
2018-02-18T05:49:18.497Z,-2.50
2018-02-18T05:51:22.018Z,-2.60
2018-02-18T05:53:26.335Z,-2.50
2018-02-18T05:55:29.878Z,-2.50
2018-02-18T05:57:33.459Z,-2.70
2018-02-18T05:59:36.999Z,-2.60
2018-02-18T06:01:40.482Z,-2.40
2018-02-18T06:03:44.055Z,-2.50
2018-02-18T06:05:47.620Z,-2.40
2018-02-18T06:07:51.230Z,-2.30
2018-02-18T06:09:55.567Z,-2.20
2018-02-18T06:11:59.051Z,-2.30
2018-02-18T06:14:02.677Z,-2.20
2018-02-18T06:16:06.212Z,-2.20
2018-02-18T06:18:10.535Z,-2.30
2018-02-18T06:20:14.874Z,-2.20
2018-02-18T06:22:18.423Z,-2.20
2018-02-18T06:24:21.984Z,-2.40
2018-02-18T06:26:25.639Z,-2.40
2018-02-18T06:28:29.986Z,-2.40
2018-02-18T06:30:33.534Z,-2.40
2018-02-18T06:32:37.123Z,-2.40
2018-02-18T06:34:40.670Z,-2.40
2018-02-18T06:36:44.221Z,-2.40
2018-02-18T06:38:48.135Z,-2.50
2018-02-18T06:40:51.894Z,-2.50
2018-02-18T06:42:55.779Z,-2.50
2018-02-18T06:44:59.556Z,-2.50
2018-02-18T06:47:03.184Z,-2.50
2018-02-18T06:49:06.756Z,-2.60
2018-02-18T06:51:11.234Z,-2.70
2018-02-18T06:53:15.177Z,-2.70
2018-02-18T06:55:18.854Z,-2.70
2018-02-18T06:57:22.488Z,-2.60
2018-02-18T06:59:26.215Z,-2.50
2018-02-18T07:01:30.161Z,-2.50
2018-02-18T07:03:34.666Z,-2.50
2018-02-18T07:05:38.514Z,-2.30
2018-02-18T07:07:42.157Z,-2.20
2018-02-18T07:09:45.779Z,-2.10
2018-02-18T07:11:50.191Z,-2.30
2018-02-18T07:13:53.933Z,-2.30
2018-02-18T07:15:57.831Z,-2.30
2018-02-18T07:18:01.851Z,-2.40
2018-02-18T07:20:05.988Z,-2.40
2018-02-18T07:22:09.960Z,-2.30
2018-02-18T07:24:14.542Z,-2.30
2018-02-18T07:26:18.436Z,-2.20
2018-02-18T07:28:22.608Z,-2.20
2018-02-18T07:30:26.354Z,-2.30
2018-02-18T07:32:30.653Z,-2.20
2018-02-18T07:34:34.263Z,-2.30
2018-02-18T07:36:38.610Z,-2.20
2018-02-18T07:38:42.215Z,-2.20
2018-02-18T07:40:45.760Z,-2.20
2018-02-18T07:42:49.390Z,-2.10
2018-02-18T07:44:53.218Z,-1.90
2018-02-18T07:46:57.953Z,-1.90
2018-02-18T07:49:02.561Z,-1.90
2018-02-18T07:51:06.149Z,-1.90
2018-02-18T07:53:09.672Z,-1.90
2018-02-18T07:55:13.959Z,-1.80
2018-02-18T07:57:18.179Z,-1.80
2018-02-18T07:59:21.731Z,-1.80
2018-02-18T08:01:30.305Z,-1.70
2018-02-18T08:03:37.846Z,-1.80
2018-02-18T08:05:42.084Z,-1.70
2018-02-18T08:07:45.668Z,-1.70
2018-02-18T08:09:49.268Z,-1.60
2018-02-18T08:11:52.841Z,-1.50
2018-02-18T08:13:56.327Z,-1.50
2018-02-18T08:16:00.684Z,-1.30
2018-02-18T08:18:04.268Z,-1.30
2018-02-18T08:20:07.772Z,-1.30
2018-02-18T08:22:11.404Z,-1.20
2018-02-18T08:24:15.709Z,-0.90
2018-02-18T08:26:19.271Z,-1.00
2018-02-18T08:28:22.812Z,-0.90
2018-02-18T08:30:26.350Z,-1.00
2018-02-18T08:32:29.953Z,-0.90
2018-02-18T08:34:33.477Z,-0.80
2018-02-18T08:36:36.999Z,-0.70
2018-02-18T08:38:41.414Z,-0.70
2018-02-18T08:40:44.958Z,-0.70
2018-02-18T08:42:48.487Z,-0.60
2018-02-18T08:44:52.067Z,-0.50
2018-02-18T08:46:55.624Z,-0.40
2018-02-18T08:48:59.143Z,-0.40
2018-02-18T08:51:02.717Z,-0.30
2018-02-18T08:53:07.051Z,-0.10
2018-02-18T08:55:10.560Z,-0.20
2018-02-18T08:57:14.201Z,-0.10
2018-02-18T08:59:17.720Z,-0.10
2018-02-18T09:01:21.203Z,0.00
2018-02-18T09:03:25.170Z,0.10
2018-02-18T09:05:28.727Z,0.20
2018-02-18T09:07:32.239Z,0.30
2018-02-18T09:09:36.691Z,0.40
2018-02-18T09:11:40.209Z,0.50
2018-02-18T09:13:44.534Z,0.70
2018-02-18T09:15:48.112Z,0.70
2018-02-18T09:17:52.254Z,0.70
2018-02-18T09:19:55.813Z,0.80
2018-02-18T09:21:59.362Z,1.00
2018-02-18T09:24:02.886Z,1.00
2018-02-18T09:26:06.463Z,1.10
2018-02-18T09:28:10.377Z,1.20
2018-02-18T09:30:13.901Z,1.30
2018-02-18T09:32:18.806Z,1.40
2018-02-18T09:34:23.111Z,1.60
2018-02-18T09:36:26.656Z,1.60
2018-02-18T09:38:30.975Z,1.80
2018-02-18T09:40:35.255Z,1.80
2018-02-18T09:42:38.878Z,1.80
2018-02-18T09:44:42.972Z,1.80
2018-02-18T09:46:46.472Z,2.00
2018-02-18T09:48:51.304Z,2.10
2018-02-18T09:50:55.661Z,2.30
2018-02-18T09:53:00.235Z,2.30
2018-02-18T09:55:03.789Z,2.30
2018-02-18T09:57:09.868Z,2.30
2018-02-18T09:59:13.376Z,2.30
2018-02-18T10:01:18.847Z,2.60
2018-02-18T10:03:22.410Z,2.50
2018-02-18T10:05:26.732Z,2.80
2018-02-18T10:07:30.253Z,2.70
2018-02-18T10:09:33.765Z,2.70
2018-02-18T10:11:37.322Z,2.80
2018-02-18T10:13:41.629Z,3.10
2018-02-18T10:15:45.323Z,3.10
2018-02-18T10:17:49.943Z,3.20
2018-02-18T10:19:55.768Z,3.30
2018-02-18T10:22:00.582Z,3.30
2018-02-18T10:24:04.193Z,3.40
2018-02-18T10:26:07.730Z,3.40
2018-02-18T10:28:11.576Z,3.40
2018-02-18T10:30:15.146Z,3.40
2018-02-18T10:32:18.740Z,3.40
2018-02-18T10:34:22.301Z,3.50
2018-02-18T10:36:25.802Z,3.60
2018-02-18T10:38:30.081Z,3.90
2018-02-18T10:40:33.614Z,3.90
2018-02-18T10:42:37.951Z,3.90
2018-02-18T10:44:41.458Z,3.90
2018-02-18T10:46:44.994Z,4.00
2018-02-18T10:48:48.465Z,4.10
2018-02-18T10:50:51.965Z,4.10
2018-02-18T10:52:55.525Z,4.10
2018-02-18T10:54:59.052Z,4.20
2018-02-18T10:57:02.617Z,4.20
2018-02-18T10:59:06.190Z,4.20
2018-02-18T11:01:10.472Z,4.30
2018-02-18T11:03:14.841Z,4.40
2018-02-18T11:05:18.424Z,4.30
2018-02-18T11:07:22.027Z,4.40
2018-02-18T11:09:25.577Z,4.40
2018-02-18T11:11:29.160Z,4.40
2018-02-18T11:13:32.761Z,4.40
2018-02-18T11:15:37.061Z,4.60
2018-02-18T11:17:40.656Z,4.60
2018-02-18T11:19:44.209Z,4.70
2018-02-18T11:21:47.792Z,4.80
2018-02-18T11:23:52.085Z,5.00
2018-02-18T11:25:56.388Z,5.00
2018-02-18T11:27:59.953Z,5.00
2018-02-18T11:30:03.450Z,5.00
2018-02-18T11:32:07.014Z,5.10
2018-02-18T11:34:11.313Z,5.10
2018-02-18T11:36:14.886Z,5.10
2018-02-18T11:38:19.286Z,5.30
2018-02-18T11:40:22.785Z,5.30
2018-02-18T11:42:26.343Z,5.30
2018-02-18T11:44:47.763Z,5.30
2018-02-18T11:46:51.309Z,5.40
2018-02-18T11:48:54.870Z,5.40
2018-02-18T11:50:58.370Z,5.50
2018-02-18T11:53:01.916Z,5.50
2018-02-18T11:55:06.254Z,5.60
2018-02-18T11:57:09.784Z,5.50
2018-02-18T11:59:13.392Z,5.50
2018-02-18T12:01:16.945Z,5.70
2018-02-18T12:03:20.528Z,5.70
2018-02-18T12:05:24.800Z,5.80
2018-02-18T12:07:28.337Z,5.80
2018-02-18T12:09:31.924Z,5.80
2018-02-18T12:11:35.433Z,5.90
2018-02-18T12:13:38.926Z,6.00
2018-02-18T12:15:42.512Z,6.00
2018-02-18T12:17:46.084Z,6.10
2018-02-18T12:19:49.653Z,6.10
2018-02-18T12:21:55.902Z,6.10
2018-02-18T12:24:02.162Z,6.00
2018-02-18T12:26:06.580Z,6.10
2018-02-18T12:28:10.117Z,6.20
2018-02-18T12:30:14.470Z,6.40
2018-02-18T12:32:18.257Z,6.40
2018-02-18T12:34:22.578Z,6.50
2018-02-18T12:36:26.134Z,6.50
2018-02-18T12:38:30.154Z,6.60
2018-02-18T12:40:34.263Z,6.70
2018-02-18T12:42:38.579Z,6.70
2018-02-18T12:44:42.897Z,6.70
2018-02-18T12:46:47.150Z,6.80
2018-02-18T12:48:51.562Z,6.70
2018-02-18T12:50:55.162Z,6.80
2018-02-18T12:52:58.659Z,6.70
2018-02-18T12:55:02.194Z,6.80
2018-02-18T12:57:07.264Z,7.00
2018-02-18T12:59:10.742Z,7.10
2018-02-18T13:01:14.268Z,7.10
2018-02-18T13:03:17.950Z,7.40
2018-02-18T13:05:21.470Z,7.60
2018-02-18T13:07:25.022Z,7.70
2018-02-18T13:09:29.396Z,8.20
2018-02-18T13:11:32.887Z,8.20
2018-02-18T13:13:36.501Z,8.50
2018-02-18T13:15:40.052Z,8.20
2018-02-18T13:17:43.584Z,8.30
2018-02-18T13:19:47.139Z,8.50
2018-02-18T13:21:50.718Z,8.60
2018-02-18T13:23:54.300Z,8.90
2018-02-18T13:25:58.662Z,9.00
2018-02-18T13:28:02.778Z,8.90
2018-02-18T13:30:06.357Z,9.10
2018-02-18T13:32:09.910Z,9.20
2018-02-18T13:34:14.976Z,9.90
2018-02-18T13:36:18.748Z,9.80
2018-02-18T13:38:23.091Z,9.30
2018-02-18T13:40:26.695Z,9.20
2018-02-18T13:42:30.396Z,8.80
2018-02-18T13:44:33.896Z,9.60
2018-02-18T13:46:37.490Z,9.80
2018-02-18T13:48:40.979Z,10.30
2018-02-18T13:50:44.549Z,11.00
2018-02-18T13:52:50.747Z,9.90
2018-02-18T13:54:54.279Z,9.80
2018-02-18T13:56:58.689Z,9.80
2018-02-18T13:59:02.349Z,9.80
2018-02-18T14:01:05.936Z,9.70
2018-02-18T14:03:09.532Z,9.70
2018-02-18T14:05:13.102Z,9.80
2018-02-18T14:07:17.386Z,10.30
2018-02-18T14:09:20.949Z,10.20
2018-02-18T14:11:24.497Z,10.20
2018-02-18T14:13:29.757Z,9.70
2018-02-18T14:15:33.245Z,9.70
2018-02-18T14:17:36.836Z,10.00
2018-02-18T14:19:40.417Z,9.90
2018-02-18T14:21:43.909Z,10.20
2018-02-18T14:23:48.236Z,10.30
2018-02-18T14:25:52.572Z,10.40
2018-02-18T14:27:58.520Z,10.40
2018-02-18T14:30:03.342Z,9.90
2018-02-18T14:32:07.010Z,10.00
2018-02-18T14:34:10.502Z,9.70
2018-02-18T14:36:14.038Z,9.40
2018-02-18T14:38:17.952Z,9.20
2018-02-18T14:40:21.490Z,8.90
2018-02-18T14:42:36.798Z,8.80
2018-02-18T14:44:52.218Z,8.70
2018-02-18T14:47:07.604Z,8.70
2018-02-18T14:49:22.882Z,9.20
2018-02-18T14:51:38.339Z,9.10
2018-02-18T14:53:53.637Z,9.40
2018-02-18T14:58:33.860Z,10.00
2018-02-18T15:00:37.387Z,9.90
2018-02-18T15:02:40.979Z,9.50
2018-02-18T15:04:44.508Z,9.20
2018-02-18T15:06:48.113Z,9.20
2018-02-18T15:08:51.699Z,8.90
2018-02-18T15:10:55.215Z,8.80
2018-02-18T15:12:58.770Z,8.60
2018-02-18T15:15:03.102Z,8.30
2018-02-18T15:17:07.392Z,8.40
2018-02-18T15:19:11.757Z,8.10
2018-02-18T15:21:15.280Z,8.10
2018-02-18T15:23:19.608Z,8.00
2018-02-18T15:25:23.135Z,8.00
2018-02-18T15:27:27.430Z,8.10
2018-02-18T15:29:31.771Z,8.70
2018-02-18T15:31:36.074Z,9.00
2018-02-18T15:33:39.589Z,9.00
2018-02-18T15:35:43.179Z,9.30
2018-02-18T15:37:46.725Z,9.40
2018-02-18T15:39:50.238Z,9.50
2018-02-18T15:41:53.834Z,9.70
2018-02-18T15:43:58.159Z,10.30
2018-02-18T15:46:02.503Z,10.40
2018-02-18T15:48:06.013Z,10.40
2018-02-18T15:50:09.611Z,10.10
2018-02-18T15:52:13.891Z,9.70
2018-02-18T15:54:18.229Z,9.30
2018-02-18T15:56:21.753Z,9.20
2018-02-18T15:58:25.268Z,9.00
2018-02-18T16:00:29.610Z,8.40
2018-02-18T16:02:33.936Z,8.20
2018-02-18T16:04:37.445Z,8.20
2018-02-18T16:06:40.967Z,8.30
2018-02-18T16:08:44.550Z,7.80
2018-02-18T16:10:48.061Z,7.30
2018-02-18T16:12:51.639Z,7.20
2018-02-18T16:14:55.212Z,7.10
2018-02-18T16:16:58.787Z,7.00
2018-02-18T16:19:02.341Z,6.90
2018-02-18T16:21:05.972Z,6.70
2018-02-18T16:23:10.252Z,6.50
2018-02-18T16:25:13.749Z,6.50
2018-02-18T16:27:17.256Z,6.40
2018-02-18T16:29:20.776Z,6.00
2018-02-18T16:31:25.176Z,6.10
2018-02-18T16:33:28.768Z,6.10
2018-02-18T16:35:33.100Z,5.60
2018-02-18T16:37:36.737Z,5.60
2018-02-18T16:39:40.287Z,5.50
2018-02-18T16:41:44.646Z,4.80
2018-02-18T16:43:48.216Z,4.80
2018-02-18T16:45:52.492Z,4.80
2018-02-18T16:47:56.089Z,4.80
2018-02-18T16:49:59.739Z,4.80
2018-02-18T16:52:03.336Z,4.40
2018-02-18T16:54:06.865Z,4.40
2018-02-18T16:56:10.469Z,4.40
2018-02-18T16:58:13.956Z,4.00
2018-02-18T17:00:17.499Z,4.10
2018-02-18T17:02:21.089Z,4.00
2018-02-18T17:04:24.691Z,3.90
2018-02-18T17:06:28.264Z,3.80
2018-02-18T17:08:32.613Z,3.80
2018-02-18T17:10:36.119Z,3.80
2018-02-18T17:12:39.699Z,3.60
2018-02-18T17:14:43.244Z,3.50
2018-02-18T17:16:46.755Z,3.40
2018-02-18T17:18:50.330Z,3.10
2018-02-18T17:20:53.882Z,3.40
2018-02-18T17:22:57.422Z,3.40
2018-02-18T17:25:01.068Z,3.20
2018-02-18T17:27:05.325Z,3.20
2018-02-18T17:29:08.841Z,3.20
2018-02-18T17:31:12.499Z,3.10
2018-02-18T17:33:16.175Z,3.00
2018-02-18T17:35:19.740Z,3.10
2018-02-18T17:37:24.135Z,2.80
2018-02-18T17:39:27.645Z,2.70
2018-02-18T17:41:31.176Z,2.80
2018-02-18T17:43:34.768Z,2.80
2018-02-18T17:45:38.315Z,2.50
2018-02-18T17:47:41.895Z,2.80
2018-02-18T17:49:45.497Z,2.80
2018-02-18T17:51:49.141Z,2.80
2018-02-18T17:53:53.697Z,3.00
2018-02-18T17:55:57.267Z,2.90
2018-02-18T17:58:00.836Z,2.90
2018-02-18T18:00:06.125Z,2.60
2018-02-18T18:02:09.639Z,2.60
2018-02-18T18:04:13.214Z,2.60
2018-02-18T18:06:17.578Z,2.50
2018-02-18T18:08:21.123Z,2.50
2018-02-18T18:10:24.638Z,2.60
2018-02-18T18:12:28.212Z,2.10
2018-02-18T18:14:31.815Z,2.00
2018-02-18T18:16:35.422Z,2.30
2018-02-18T18:18:38.964Z,2.20
2018-02-18T18:20:43.319Z,2.40
2018-02-18T18:22:47.482Z,2.30
2018-02-18T18:24:51.497Z,2.30
2018-02-18T18:26:55.138Z,2.20
2018-02-18T18:28:58.703Z,2.10
2018-02-18T18:31:02.262Z,2.10
2018-02-18T18:33:05.864Z,1.60
2018-02-18T18:35:09.441Z,2.00
2018-02-18T18:37:13.007Z,2.00
2018-02-18T18:39:17.552Z,1.70
2018-02-18T18:41:21.068Z,1.90
2018-02-18T18:43:24.605Z,1.70
2018-02-18T18:45:28.217Z,1.80
2018-02-18T18:47:31.724Z,1.90
2018-02-18T18:49:35.219Z,1.60
2018-02-18T18:51:38.794Z,1.70
2018-02-18T18:53:42.734Z,1.80
2018-02-18T18:55:46.321Z,1.80
2018-02-18T18:57:49.896Z,1.80
2018-02-18T18:59:53.400Z,1.70
2018-02-18T19:01:56.949Z,1.70
2018-02-18T19:04:00.477Z,1.60
2018-02-18T19:06:04.081Z,1.80
2018-02-18T19:08:07.700Z,1.80
2018-02-18T19:10:12.804Z,1.90
2018-02-18T19:12:16.417Z,1.80
2018-02-18T19:14:19.956Z,1.50
2018-02-18T19:16:23.509Z,1.60
2018-02-18T19:18:27.075Z,1.60
2018-02-18T19:20:31.376Z,1.70
2018-02-18T19:22:35.692Z,1.70
2018-02-18T19:24:39.961Z,1.60
2018-02-18T19:26:43.517Z,1.60
2018-02-18T19:28:47.037Z,1.80
2018-02-18T19:30:50.568Z,1.70
2018-02-18T19:32:54.076Z,1.90
2018-02-18T19:34:57.655Z,1.70
2018-02-18T19:37:01.274Z,1.80
2018-02-18T19:39:05.630Z,1.60
2018-02-18T19:41:09.221Z,1.50
2018-02-18T19:43:12.750Z,1.50
2018-02-18T19:45:16.313Z,1.60
2018-02-18T19:47:19.908Z,1.80
2018-02-18T19:49:23.422Z,1.70
2018-02-18T19:51:26.929Z,1.60
2018-02-18T19:53:30.493Z,1.50
2018-02-18T19:55:33.975Z,1.40
2018-02-18T19:57:37.502Z,1.40
2018-02-18T19:59:41.044Z,1.50
2018-02-18T20:01:45.387Z,1.10
2018-02-18T20:03:50.653Z,1.10
2018-02-18T20:05:54.237Z,1.10
2018-02-18T20:07:57.787Z,1.10
2018-02-18T20:10:02.102Z,1.20
2018-02-18T20:12:05.855Z,1.20
2018-02-18T20:14:09.452Z,1.20
2018-02-18T20:16:12.986Z,1.10
2018-02-18T20:18:17.293Z,1.10
2018-02-18T20:20:21.694Z,1.10
2018-02-18T20:22:25.242Z,1.10
2018-02-18T20:24:29.137Z,1.30
2018-02-18T20:26:32.695Z,1.10
2018-02-18T20:28:36.204Z,1.10
2018-02-18T20:30:40.523Z,1.40
2018-02-18T20:32:44.919Z,1.40
2018-02-18T20:34:48.425Z,1.30
2018-02-18T20:36:51.992Z,1.40
2018-02-18T20:38:55.575Z,1.30
2018-02-18T20:40:59.126Z,1.10
2018-02-18T20:43:03.444Z,1.10
2018-02-18T20:45:07.039Z,1.10
2018-02-18T20:47:11.308Z,1.20
2018-02-18T20:49:14.962Z,1.20
2018-02-18T20:51:18.574Z,1.10
2018-02-18T20:53:22.128Z,1.10
2018-02-18T20:55:25.783Z,1.10
2018-02-18T20:57:29.329Z,1.00
2018-02-18T20:59:33.592Z,1.10
2018-02-18T21:01:37.998Z,1.10
2018-02-18T21:03:41.579Z,1.10
2018-02-18T21:05:45.075Z,1.00
2018-02-18T21:07:48.638Z,1.00
2018-02-18T21:09:52.924Z,1.00
2018-02-18T21:11:56.521Z,1.00
2018-02-18T21:14:00.105Z,1.00
2018-02-18T21:16:03.708Z,1.00
2018-02-18T21:18:07.255Z,0.90
2018-02-18T21:20:10.845Z,0.80
2018-02-18T21:22:15.117Z,0.60
2018-02-18T21:24:18.749Z,0.60
2018-02-18T21:26:22.357Z,0.50
2018-02-18T21:28:25.870Z,0.60
2018-02-18T21:30:29.387Z,0.40
2018-02-18T21:32:32.958Z,0.50
2018-02-18T21:34:36.473Z,0.60
2018-02-18T21:36:39.998Z,0.50
2018-02-18T21:38:43.584Z,0.60
2018-02-18T21:40:47.058Z,0.60
2018-02-18T21:42:50.630Z,0.70
2018-02-18T21:45:17.190Z,0.80
2018-02-18T21:47:20.801Z,0.80
2018-02-18T21:49:24.373Z,0.90
2018-02-18T21:51:29.188Z,0.90
2018-02-18T21:53:33.316Z,1.00
2018-02-18T21:55:36.845Z,1.00
2018-02-18T21:57:40.390Z,1.10
2018-02-18T21:59:43.987Z,0.90
2018-02-18T22:01:47.535Z,0.80
2018-02-18T22:03:51.889Z,0.90
2018-02-18T22:05:55.470Z,0.80
2018-02-18T22:08:01.134Z,1.10
2018-02-18T22:10:08.813Z,1.10
2018-02-18T22:12:12.418Z,1.10
2018-02-18T22:14:15.986Z,1.00
2018-02-18T22:16:19.567Z,1.10
2018-02-18T22:18:23.079Z,1.10
2018-02-18T22:20:29.415Z,1.20
2018-02-18T22:22:33.012Z,1.10
2018-02-18T22:24:36.702Z,1.10
2018-02-18T22:26:40.581Z,1.10
2018-02-18T22:28:44.156Z,1.10
2018-02-18T22:30:48.465Z,1.10
2018-02-18T22:32:52.746Z,1.30
2018-02-18T22:34:56.360Z,1.20
2018-02-18T22:37:00.655Z,1.30
2018-02-18T22:39:05.991Z,1.20
2018-02-18T22:41:10.498Z,1.30
2018-02-18T22:43:13.995Z,1.30
2018-02-18T22:45:17.538Z,1.20
2018-02-18T22:47:21.143Z,1.30
2018-02-18T22:49:25.253Z,1.20
2018-02-18T22:51:29.504Z,1.20
2018-02-18T22:53:33.064Z,1.20
2018-02-18T22:55:36.615Z,1.20
2018-02-18T22:57:40.112Z,1.30
2018-02-18T22:59:43.663Z,1.30
2018-02-18T23:01:47.210Z,1.20
2018-02-18T23:03:51.502Z,1.20
2018-02-18T23:05:55.402Z,1.20
2018-02-18T23:07:58.919Z,1.30
2018-02-18T23:10:05.705Z,1.40
2018-02-18T23:12:10.120Z,1.30
2018-02-18T23:14:14.433Z,1.30
2018-02-18T23:16:18.276Z,1.20
2018-02-18T23:18:22.013Z,1.20
2018-02-18T23:20:25.624Z,1.20
2018-02-18T23:22:29.152Z,1.20
2018-02-18T23:24:33.515Z,1.20
2018-02-18T23:26:37.024Z,1.20
2018-02-18T23:28:40.569Z,1.20
2018-02-18T23:30:44.237Z,1.20
2018-02-18T23:32:47.805Z,1.20
2018-02-18T23:34:52.168Z,1.30
2018-02-18T23:36:55.760Z,1.20
2018-02-18T23:39:01.706Z,1.10
2018-02-18T23:41:05.310Z,1.10
2018-02-18T23:43:08.889Z,1.00
2018-02-18T23:45:12.469Z,1.20
2018-02-18T23:47:15.965Z,1.20
2018-02-18T23:49:19.543Z,1.10
2018-02-18T23:51:23.046Z,1.10
2018-02-18T23:53:26.595Z,1.00
2018-02-18T23:55:30.191Z,1.10
2018-02-18T23:57:33.730Z,1.00
2018-02-18T23:59:37.258Z,1.00
